createdAt,value
2019-05-06T00:03:28.287Z,4.20
2019-05-06T00:08:27.995Z,3.50
2019-05-06T00:13:27.748Z,3.43
2019-05-06T00:18:27.480Z,3.00
2019-05-06T00:23:32.015Z,3.90
2019-05-06T00:28:44.664Z,3.60
2019-05-06T00:33:44.407Z,4.27
2019-05-06T00:38:46.047Z,3.50
2019-05-06T00:43:45.701Z,3.93
2019-05-06T00:48:45.367Z,4.23
2019-05-06T00:53:49.204Z,3.30
2019-05-06T00:58:48.848Z,4.50
2019-05-06T01:04:00.499Z,3.60
2019-05-06T01:09:00.595Z,3.53
2019-05-06T01:14:09.156Z,3.83
2019-05-06T01:19:08.808Z,3.70
2019-05-06T01:24:27.699Z,4.30
2019-05-06T01:29:27.356Z,4.50
2019-05-06T01:34:27.007Z,3.93
2019-05-06T01:39:50.551Z,3.37
2019-05-06T01:44:50.316Z,3.57
2019-05-06T01:49:49.959Z,3.73
2019-05-06T01:54:49.615Z,4.40
2019-05-06T01:59:49.253Z,3.70
2019-05-06T02:04:48.919Z,3.87
2019-05-06T02:09:48.595Z,4.23
2019-05-06T02:14:48.503Z,4.73
2019-05-06T02:19:48.501Z,3.87
2019-05-06T02:24:53.583Z,3.63
2019-05-06T02:29:59.105Z,4.03
2019-05-06T02:35:26.288Z,5.33
2019-05-06T02:40:28.359Z,3.90
2019-05-06T02:45:28.067Z,3.67
2019-05-06T02:50:29.605Z,4.37
2019-05-06T02:55:33.309Z,4.67
2019-05-06T03:00:32.899Z,4.40
2019-05-06T03:05:33.423Z,4.20
2019-05-06T03:10:33.402Z,4.20
2019-05-06T03:15:34.292Z,4.40
2019-05-06T03:21:04.118Z,5.30
2019-05-06T03:26:06.524Z,5.30
2019-05-06T03:31:07.860Z,4.60
2019-05-06T03:36:18.659Z,5.10
2019-05-06T03:41:08.995Z,4.30
2019-05-06T03:46:23.403Z,6.20
2019-05-06T03:51:23.461Z,4.10
2019-05-06T03:56:24.120Z,4.67
2019-05-06T04:01:24.295Z,4.30
2019-05-06T04:06:24.343Z,4.27
2019-05-06T04:11:24.887Z,5.90
2019-05-06T04:16:37.548Z,5.07
2019-05-06T04:21:44.927Z,4.83
2019-05-06T04:26:56.947Z,5.00
2019-05-06T04:31:56.742Z,5.10
2019-05-06T04:36:56.392Z,4.60
2019-05-06T04:41:56.581Z,5.27
2019-05-06T04:46:56.789Z,5.20
2019-05-06T04:51:56.895Z,4.80
2019-05-06T04:56:56.761Z,5.93
2019-05-06T05:01:56.570Z,5.00
2019-05-06T05:06:56.227Z,4.90
2019-05-06T05:12:02.964Z,4.80
2019-05-06T05:17:32.996Z,4.87
2019-05-06T05:22:32.601Z,4.80
2019-05-06T05:27:33.049Z,4.80
2019-05-06T05:32:33.760Z,5.00
2019-05-06T05:37:33.419Z,4.33
2019-05-06T05:42:58.599Z,5.03
2019-05-06T05:48:02.747Z,5.03
2019-05-06T05:53:02.632Z,4.43
2019-05-06T05:58:03.123Z,4.50
2019-05-06T06:03:06.487Z,4.40
2019-05-06T06:08:04.779Z,4.23
2019-05-06T06:13:05.092Z,4.97
2019-05-06T06:18:36.465Z,5.10
2019-05-06T06:23:39.582Z,5.33
2019-05-06T06:28:39.406Z,4.30
2019-05-06T06:33:39.164Z,4.63
2019-05-06T06:39:04.277Z,4.10
2019-05-06T06:44:08.752Z,5.13
2019-05-06T06:49:08.575Z,3.50
2019-05-06T06:54:08.207Z,3.73
2019-05-06T06:59:33.511Z,4.20
2019-05-06T07:04:38.427Z,4.03
2019-05-06T07:09:38.068Z,3.57
2019-05-06T07:14:37.800Z,2.03
2019-05-06T07:19:42.237Z,2.83
2019-05-06T07:24:54.187Z,3.20
2019-05-06T07:29:53.923Z,3.27
2019-05-06T07:34:54.055Z,3.10
2019-05-06T07:39:53.699Z,3.93
2019-05-06T07:45:06.428Z,3.77
2019-05-06T07:50:05.020Z,4.23
2019-05-06T07:55:06.335Z,3.10
2019-05-06T08:00:06.845Z,3.10
2019-05-06T08:05:07.684Z,3.20
2019-05-06T08:10:07.750Z,2.87
2019-05-06T08:15:07.838Z,3.03
2019-05-06T08:20:08.586Z,2.53
2019-05-06T08:25:08.223Z,2.90
2019-05-06T08:30:08.457Z,2.27
2019-05-06T08:35:10.009Z,2.00
2019-05-06T08:40:11.921Z,3.43
2019-05-06T08:45:12.826Z,2.57
2019-05-06T08:50:32.484Z,3.23
2019-05-06T08:55:35.007Z,2.70
2019-05-06T09:00:38.575Z,2.40
2019-05-06T09:05:38.343Z,3.47
2019-05-06T09:10:38.059Z,3.67
2019-05-06T09:15:37.704Z,2.43
2019-05-06T09:20:37.359Z,2.70
2019-05-06T09:25:37.038Z,3.30
2019-05-06T09:30:58.764Z,2.27
2019-05-06T09:35:58.415Z,2.00
2019-05-06T09:40:58.355Z,3.13
2019-05-06T09:45:58.063Z,3.40
2019-05-06T09:50:57.785Z,3.47
2019-05-06T09:56:15.293Z,3.30
2019-05-06T10:01:15.943Z,2.83
2019-05-06T10:06:15.647Z,3.00
2019-05-06T10:11:15.302Z,2.47
2019-05-06T10:16:15.095Z,2.43
2019-05-06T10:21:14.811Z,3.00
2019-05-06T10:26:14.539Z,2.93
2019-05-06T10:31:17.866Z,3.50
2019-05-06T10:36:17.604Z,4.10
2019-05-06T10:41:19.751Z,3.27
2019-05-06T10:46:19.474Z,2.93
2019-05-06T10:51:27.355Z,4.80
2019-05-06T10:56:53.792Z,3.63
2019-05-06T11:01:48.070Z,3.70
2019-05-06T11:06:49.107Z,3.57
2019-05-06T11:11:48.764Z,3.23
2019-05-06T11:16:48.381Z,2.30
2019-05-06T11:21:48.027Z,2.27
2019-05-06T11:26:47.711Z,1.33
2019-05-06T11:32:23.707Z,1.63
2019-05-06T11:37:50.831Z,1.60
2019-05-06T11:42:49.509Z,1.50
2019-05-06T11:47:49.170Z,1.10
2019-05-06T11:52:48.811Z,1.23
2019-05-06T11:57:48.469Z,1.20
2019-05-06T12:02:48.979Z,0.77
2019-05-06T12:08:03.772Z,0.80
2019-05-06T12:12:50.079Z,0.97
2019-05-06T12:17:49.992Z,0.70
2019-05-06T12:22:49.655Z,0.90
2019-05-06T12:27:49.396Z,1.20
2019-05-06T12:33:13.016Z,1.10
2019-05-06T12:38:29.459Z,1.37
2019-05-06T12:43:55.751Z,1.27
2019-05-06T12:48:55.399Z,1.50
2019-05-06T12:53:55.032Z,1.43
2019-05-06T12:58:54.991Z,1.27
2019-05-06T13:03:54.766Z,0.73
2019-05-06T13:09:01.416Z,0.80
2019-05-06T13:14:00.343Z,0.77
2019-05-06T13:18:58.097Z,0.90
2019-05-06T13:24:04.653Z,0.93
2019-05-06T13:29:13.995Z,0.80
2019-05-06T13:34:18.117Z,1.00
2019-05-06T13:39:18.098Z,1.13
2019-05-06T13:44:19.215Z,0.90
2019-05-06T13:49:30.747Z,1.00
2019-05-06T13:54:30.391Z,1.20
2019-05-06T13:59:30.831Z,2.17
2019-05-06T14:04:32.613Z,1.50
2019-05-06T14:09:39.556Z,0.90
2019-05-06T14:14:33.460Z,1.00
2019-05-06T14:19:33.381Z,1.17
2019-05-06T14:24:34.180Z,1.40
2019-05-06T14:29:48.639Z,1.13
2019-05-06T14:34:51.992Z,1.20
2019-05-06T14:39:58.886Z,1.90
2019-05-06T14:44:54.462Z,1.10
2019-05-06T14:49:54.191Z,1.40
2019-05-06T14:54:56.148Z,1.30
2019-05-06T14:59:56.049Z,1.17
2019-05-06T15:04:55.943Z,1.00
2019-05-06T15:10:08.015Z,1.20
2019-05-06T15:14:57.304Z,1.30
2019-05-06T15:19:56.935Z,1.20
2019-05-06T15:24:56.919Z,1.43
2019-05-06T15:29:58.478Z,0.97
2019-05-06T15:35:04.900Z,1.03
2019-05-06T15:40:06.359Z,0.90
2019-05-06T15:45:06.723Z,1.13
2019-05-06T15:50:06.762Z,1.00
2019-05-06T15:55:07.079Z,1.10
2019-05-06T16:00:07.662Z,1.10
2019-05-06T16:05:14.008Z,0.90
2019-05-06T16:10:09.055Z,0.70
2019-05-06T16:15:09.155Z,0.70
2019-05-06T16:20:28.044Z,0.90
2019-05-06T16:25:27.780Z,1.00
2019-05-06T16:30:27.472Z,1.30
2019-05-06T16:35:27.127Z,1.50
2019-05-06T16:40:26.924Z,1.10
2019-05-06T16:45:26.739Z,1.17
2019-05-06T16:50:29.494Z,2.83
2019-05-06T16:55:48.462Z,1.80
2019-05-06T17:00:48.202Z,1.70
2019-05-06T17:06:13.825Z,1.63
2019-05-06T17:11:27.126Z,1.80
2019-05-06T17:16:14.814Z,1.40
2019-05-06T17:21:14.539Z,1.17
2019-05-06T17:26:15.150Z,1.10
2019-05-06T17:31:32.888Z,1.43
2019-05-06T17:36:34.183Z,1.30
2019-05-06T17:41:44.515Z,1.90
2019-05-06T17:46:42.593Z,2.10
2019-05-06T17:52:13.177Z,1.77
2019-05-06T17:57:12.923Z,1.50
2019-05-06T18:02:15.450Z,1.77
2019-05-06T18:07:15.291Z,1.50
2019-05-06T18:12:15.295Z,1.60
2019-05-06T18:17:14.916Z,1.73
2019-05-06T18:22:14.571Z,1.50
2019-05-06T18:27:14.214Z,1.83
2019-05-06T18:32:13.867Z,2.00
2019-05-06T18:37:13.600Z,1.83
2019-05-06T18:42:19.156Z,1.50
2019-05-06T18:47:15.843Z,3.00
2019-05-06T18:52:15.491Z,2.63
2019-05-06T18:57:15.372Z,2.40
2019-05-06T19:02:15.056Z,1.90
2019-05-06T19:07:17.162Z,1.90
2019-05-06T19:12:28.909Z,2.40
2019-05-06T19:17:17.555Z,2.60
2019-05-06T19:22:17.519Z,2.43
2019-05-06T19:27:18.197Z,2.77
2019-05-06T19:32:17.932Z,2.70
2019-05-06T19:37:17.639Z,2.30
2019-05-06T19:42:17.302Z,2.90
2019-05-06T19:47:17.300Z,4.80
2019-05-06T19:52:17.215Z,3.70
2019-05-06T19:57:16.887Z,3.13
2019-05-06T20:02:16.696Z,2.80
2019-05-06T20:07:26.891Z,2.53
2019-05-06T20:12:32.864Z,2.43
2019-05-06T20:17:32.813Z,2.10
2019-05-06T20:22:32.614Z,2.50
2019-05-06T20:27:32.471Z,2.73
2019-05-06T20:32:32.309Z,2.37
2019-05-06T20:37:32.987Z,3.13
2019-05-06T20:42:32.816Z,2.93
2019-05-06T20:47:32.520Z,2.37
2019-05-06T20:52:33.193Z,2.20
2019-05-06T20:57:33.231Z,2.70
2019-05-06T21:02:32.883Z,2.17
2019-05-06T21:07:32.515Z,2.40
2019-05-06T21:12:33.756Z,2.30
2019-05-06T21:17:33.783Z,1.83
2019-05-06T21:22:33.568Z,3.30
2019-05-06T21:27:33.578Z,2.57
2019-05-06T21:32:33.253Z,2.20
2019-05-06T21:37:32.966Z,2.40
2019-05-06T21:42:32.636Z,2.70
2019-05-06T21:47:32.583Z,3.20
2019-05-06T21:52:39.260Z,2.50
2019-05-06T21:57:33.671Z,3.03
2019-05-06T22:02:33.355Z,2.70
2019-05-06T22:07:35.806Z,2.43
2019-05-06T22:12:34.484Z,2.70
2019-05-06T22:17:34.139Z,2.80
2019-05-06T22:22:34.218Z,2.80
2019-05-06T22:27:34.163Z,2.80
2019-05-06T22:32:45.319Z,2.90
2019-05-06T22:37:45.217Z,3.60
2019-05-06T22:42:46.043Z,2.73
2019-05-06T22:47:45.690Z,3.73
2019-05-06T22:52:46.312Z,3.30
2019-05-06T22:57:45.957Z,3.27
2019-05-06T23:02:54.827Z,2.50
2019-05-06T23:07:54.459Z,3.67
2019-05-06T23:12:54.126Z,2.80
2019-05-06T23:17:53.771Z,2.90
2019-05-06T23:22:53.394Z,3.77
2019-05-06T23:27:53.166Z,3.20
2019-05-06T23:32:53.091Z,4.10
2019-05-06T23:38:29.063Z,3.80
2019-05-06T23:44:04.798Z,3.57
2019-05-06T23:49:42.243Z,3.50
2019-05-06T23:55:19.306Z,3.73
